ADDS METAR Data INFO
IDs: Format: Raw Decoded Include TAF

Data at: 0200 UTC 18 Oct 2017

KCON 180151Z AUTO 00000KT 10SM CLR 05/00 A3020 RMK AO2 SLP230 T00500000
KCON 180051Z AUTO 20006KT 10SM CLR 07/01 A3019 RMK AO2 SLP227 T00670006
KCON 172351Z AUTO 16004KT 10SM CLR 07/01 A3019 RMK AO2 SLP228 T00670006 10150 20067 53005
KCON 172251Z AUTO 19004KT 10SM CLR 09/M01 A3018 RMK AO2 SLP222 T00941006
KCON 172151Z AUTO 17004KT 10SM CLR 12/M01 A3017 RMK AO2 SLP219 T01171011
KCON 172051Z AUTO 22006KT 10SM CLR 14/M01 A3018 RMK AO2 SLP221 T01391011 56016
KCON 171951Z AUTO 18006KT 10SM CLR 14/M02 A3018 RMK AO2 SLP222 T01441017
KCON 171851Z AUTO 19006KT 10SM CLR 13/M01 A3019 RMK AO2 SLP227 T01331011
KCON 171751Z AUTO VRB05KT 10SM CLR 13/M02 A3022 RMK AO2 SLP237 T01281017 10128 21011 58020
KCON 171651Z AUTO 00000KT 10SM CLR 12/M02 A3025 RMK AO2 SLP245 T01171022
KCON 171551Z AUTO VRB04KT 10SM 11/M01 A3027 RMK AO2 SLP254 T01061011 PWINO $
KCON 171451Z AUTO 30007KT CLR 09/M02 A3028 RMK AO2 SLP258 T00941017 58002 $
KCON 171351Z AUTO 34006KT 10SM CLR 07/M01 A3029 RMK AO2 SLP260 T00721006
KCON 171251Z AUTO 00000KT 10SM CLR 04/02 A3030 RMK AO2 SLP262 T00390017
KCON 171151Z AUTO 00000KT 10SM CLR M01/M02 A3029 RMK AO2 SLP261 I6001 T10111022 10017 21028 51021
KCON 171051Z AUTO 10003KT 10SM CLR M02/M04 A3027 RMK AO2 SLP254 T10221039
KCON 170951Z AUTO 29003KT 10SM CLR M01/M03 A3026 RMK AO2 SLP249 I1001 T10111028
KCON 170851Z AUTO 00000KT 10SM CLR M01/M03 A3023 RMK AO2 SLP240 T10111028 51015
KCON 170751Z AUTO 00000KT 10SM CLR M01/M03 A3021 RMK AO2 SLP233 T10111033
KCON 170651Z AUTO 00000KT 10SM CLR M01/M03 A3020 RMK AO2 SLP230 T10111028
KCON 170551Z AUTO 00000KT 10SM CLR 01/M02 A3018 RMK AO2 SLP223 T00061017 10067 20006 53008
KCON 170451Z AUTO 33004KT 10SM CLR 03/00 A3017 RMK AO2 SLP219 T00330000 401940028
KCON 170351Z AUTO 01004KT 10SM CLR 03/00 A3016 RMK AO2 SLP217 T00330000
KCON 170251Z AUTO 31005KT 10SM CLR 04/00 A3016 RMK AO2 SLP215 T00390000 51018
KCON 170151Z AUTO 31006KT 10SM CLR 05/00 A3015 RMK AO2 SLP211 T00500000
KCON 170051Z AUTO 34009KT 10SM CLR 06/01 A3012 RMK AO2 SLP202 T00610006
KCON 162351Z AUTO 34006KT 10SM CLR 07/01 A3010 RMK AO2 SLP196 T00670011 10117 20067 51028
KCON 162251Z AUTO 34011KT 10SM BKN039 08/02 A3007 RMK AO2 SLP186 T00780017
KCON 162151Z AUTO 31010KT 10SM CLR 09/02 A3006 RMK AO2 SLP179 T00890017
KCON 162051Z AUTO 31010G18KT 10SM CLR 09/02 A3002 RMK AO2 SLP167 T00940022 53016
KCON 161951Z AUTO 32009G18KT 10SM CLR 11/03 A3000 RMK AO2 SLP158 T01060028
KCON 161851Z AUTO 33010KT 10SM CLR 12/03 A2997 RMK AO2 SLP149 T01170028
KCON 161751Z AUTO 34008G15KT 10SM CLR 11/03 A2997 RMK AO2 SLP151 T01110033 10128 20106 51012
KCON 161651Z AUTO 32018G23KT 10SM CLR 12/03 A2997 RMK AO2 PK WND 30026/1640 SLP149 T01170028
KCON 161551Z AUTO 32012KT 10SM CLR 11/03 A2998 RMK AO2 SLP151 T01060028
KCON 161451Z AUTO 31015G23KT 10SM FEW033 11/03 A2994 RMK AO2 SLP139 T01110028 51024